createdAt,value
2018-08-10T00:00:08.636Z,0.00
2018-08-10T00:01:08.546Z,0.00
2018-08-10T00:02:08.454Z,0.00
2018-08-10T00:03:08.362Z,0.00
2018-08-10T00:04:08.258Z,0.00
2018-08-10T00:05:08.169Z,0.00
2018-08-10T00:06:08.077Z,0.00
2018-08-10T00:07:07.986Z,0.00
2018-08-10T00:08:08.133Z,0.00
2018-08-10T00:09:07.792Z,0.00
2018-08-10T00:10:07.703Z,0.00
2018-08-10T00:11:07.605Z,0.00
2018-08-10T00:12:07.511Z,0.00
2018-08-10T00:13:07.416Z,0.00
2018-08-10T00:14:07.329Z,0.00
2018-08-10T00:15:07.222Z,0.00
2018-08-10T00:16:07.132Z,0.00
2018-08-10T00:17:07.041Z,0.00
2018-08-10T00:18:07.253Z,0.00
2018-08-10T00:19:06.847Z,0.00
2018-08-10T00:20:06.755Z,0.00
2018-08-10T00:21:06.666Z,0.00
2018-08-10T00:22:06.574Z,0.00
2018-08-10T00:23:06.721Z,0.00
2018-08-10T00:24:06.381Z,0.00
2018-08-10T00:25:06.289Z,0.00
2018-08-10T00:26:06.186Z,0.00
2018-08-10T00:27:06.099Z,0.00
2018-08-10T00:28:06.005Z,0.00
2018-08-10T00:29:05.914Z,0.00
2018-08-10T00:30:05.811Z,0.00
2018-08-10T00:31:05.719Z,0.00
2018-08-10T00:32:05.629Z,0.00
2018-08-10T00:33:05.526Z,0.00
2018-08-10T00:34:05.435Z,0.00
2018-08-10T00:35:05.344Z,0.00
2018-08-10T00:36:05.253Z,0.00
2018-08-10T00:37:05.150Z,0.00
2018-08-10T00:38:05.057Z,0.00
2018-08-10T00:39:04.968Z,0.00
2018-08-10T00:40:04.865Z,0.00
2018-08-10T00:41:04.775Z,0.00
2018-08-10T00:42:04.684Z,0.00
2018-08-10T00:43:04.832Z,0.00
2018-08-10T00:44:04.490Z,0.00
2018-08-10T00:45:04.411Z,0.00
2018-08-10T00:46:04.307Z,0.00
2018-08-10T00:47:04.205Z,0.00
2018-08-10T00:48:04.116Z,0.00
2018-08-10T00:49:04.023Z,0.00
2018-08-10T00:50:03.932Z,0.00
2018-08-10T00:51:03.829Z,0.00
2018-08-10T00:52:03.739Z,0.00
2018-08-10T00:53:03.647Z,0.00
2018-08-10T00:54:03.544Z,0.00
2018-08-10T00:55:03.465Z,0.00
2018-08-10T00:56:03.362Z,0.00
2018-08-10T00:57:03.260Z,0.00
2018-08-10T00:58:03.168Z,0.00
2018-08-10T00:59:03.076Z,0.00
2018-08-10T01:00:02.987Z,0.00
2018-08-10T01:01:02.884Z,0.00
2018-08-10T01:02:02.792Z,0.00
2018-08-10T01:03:02.702Z,0.00
2018-08-10T01:04:02.609Z,0.00
2018-08-10T01:05:02.507Z,0.00
2018-08-10T01:06:02.417Z,0.00
2018-08-10T01:07:02.325Z,0.00
2018-08-10T01:08:02.222Z,0.00
2018-08-10T01:09:02.132Z,0.00
2018-08-10T01:10:02.045Z,0.00
2018-08-10T01:11:01.938Z,0.00
2018-08-10T01:12:01.848Z,0.00
2018-08-10T01:13:01.756Z,0.00
2018-08-10T01:14:01.655Z,0.00
2018-08-10T01:15:01.563Z,0.00
2018-08-10T01:16:01.471Z,0.00
2018-08-10T01:17:01.369Z,0.00
2018-08-10T01:18:01.277Z,0.00
2018-08-10T01:19:01.248Z,0.00
2018-08-10T01:20:01.095Z,0.00
2018-08-10T01:21:00.996Z,0.00
2018-08-10T01:22:00.900Z,0.00
2018-08-10T01:23:01.111Z,0.00
2018-08-10T01:24:00.707Z,0.00
2018-08-10T01:25:00.616Z,0.00
2018-08-10T01:26:00.530Z,0.00
2018-08-10T01:27:00.423Z,0.00
2018-08-10T01:28:00.332Z,0.00
2018-08-10T01:29:00.371Z,0.00
2018-08-10T01:30:00.149Z,0.00
2018-08-10T01:31:00.047Z,0.00
2018-08-10T01:31:59.956Z,0.00
2018-08-10T01:33:00.116Z,0.00
2018-08-10T01:33:59.765Z,0.00
2018-08-10T01:34:59.672Z,0.00
2018-08-10T01:35:59.579Z,0.00
2018-08-10T01:36:59.477Z,0.00
2018-08-10T01:37:59.385Z,0.00
2018-08-10T01:38:59.298Z,0.00
2018-08-10T01:39:59.191Z,0.00
2018-08-10T01:40:59.107Z,0.00
2018-08-10T01:41:59.010Z,0.00
2018-08-10T01:42:59.206Z,0.00
2018-08-10T01:43:58.817Z,0.00
2018-08-10T01:44:58.724Z,0.00
2018-08-10T01:45:58.633Z,0.00
2018-08-10T01:46:58.532Z,0.00
2018-08-10T01:47:58.690Z,0.00
2018-08-10T01:48:58.337Z,0.00
2018-08-10T01:49:58.246Z,0.00
2018-08-10T01:50:58.155Z,0.00
2018-08-10T01:51:58.053Z,0.00
2018-08-10T01:52:57.961Z,0.00
2018-08-10T01:53:57.869Z,0.00
2018-08-10T01:54:57.768Z,0.00
2018-08-10T01:55:57.677Z,0.00
2018-08-10T01:56:57.588Z,0.00
2018-08-10T01:57:57.495Z,0.00
2018-08-10T01:58:57.392Z,0.00
2018-08-10T01:59:57.300Z,0.00
2018-08-10T02:00:57.210Z,0.00
2018-08-10T02:01:57.107Z,0.00
2018-08-10T02:02:57.015Z,0.00
2018-08-10T02:03:56.925Z,0.00
2018-08-10T02:04:56.822Z,0.00
2018-08-10T02:05:56.730Z,0.00
2018-08-10T02:06:56.641Z,0.00
2018-08-10T02:07:56.537Z,0.00
2018-08-10T02:08:56.446Z,0.00
2018-08-10T02:09:56.355Z,0.00
2018-08-10T02:10:56.253Z,0.00
2018-08-10T02:11:56.160Z,0.00
2018-08-10T02:12:56.072Z,0.00
2018-08-10T02:13:55.967Z,0.00
2018-08-10T02:14:55.875Z,0.00
2018-08-10T02:15:55.788Z,0.00
2018-08-10T02:16:55.682Z,0.00
2018-08-10T02:17:55.904Z,0.00
2018-08-10T02:18:55.500Z,0.00
2018-08-10T02:19:55.400Z,0.00
2018-08-10T02:20:55.305Z,0.00
2018-08-10T02:21:55.215Z,0.00
2018-08-10T02:22:55.112Z,0.00
2018-08-10T02:23:55.034Z,0.00
2018-08-10T02:24:54.931Z,0.00
2018-08-10T02:25:54.830Z,0.00
2018-08-10T02:26:54.736Z,0.00
2018-08-10T02:27:54.650Z,0.00
2018-08-10T02:28:54.543Z,0.00
2018-08-10T02:29:54.454Z,0.00
2018-08-10T02:30:54.361Z,0.00
2018-08-10T02:31:54.257Z,0.00
2018-08-10T02:32:54.167Z,0.00
2018-08-10T02:33:54.076Z,0.00
2018-08-10T02:34:53.973Z,0.00
2018-08-10T02:35:53.881Z,0.00
2018-08-10T02:36:53.791Z,0.00
2018-08-10T02:37:53.937Z,0.00
2018-08-10T02:38:53.596Z,0.00
2018-08-10T02:39:53.506Z,0.00
2018-08-10T02:40:53.406Z,0.00
2018-08-10T02:41:53.312Z,0.00
2018-08-10T02:42:53.220Z,0.00
2018-08-10T02:43:53.118Z,0.00
2018-08-10T02:44:53.025Z,0.00
2018-08-10T02:45:52.936Z,0.00
2018-08-10T02:46:52.833Z,0.00
2018-08-10T02:47:52.741Z,0.00
2018-08-10T02:48:52.654Z,0.00
2018-08-10T02:49:52.548Z,0.00
2018-08-10T02:50:52.456Z,0.00
2018-08-10T02:51:52.368Z,0.00
2018-08-10T02:52:52.263Z,0.00
2018-08-10T02:53:52.172Z,0.00
2018-08-10T02:54:52.081Z,0.00
2018-08-10T02:55:51.981Z,0.00
2018-08-10T02:56:51.886Z,0.00
2018-08-10T02:57:52.096Z,0.00
2018-08-10T02:58:51.695Z,0.00
2018-08-10T02:59:51.608Z,0.00
2018-08-10T03:00:51.511Z,0.00
2018-08-10T03:01:51.408Z,0.00
2018-08-10T03:02:51.316Z,4.00
2018-08-10T03:03:51.226Z,4.00
2018-08-10T03:04:51.126Z,4.00
2018-08-10T03:05:51.037Z,4.00
2018-08-10T03:06:50.941Z,4.00
2018-08-10T03:07:51.092Z,0.00
2018-08-10T03:08:50.748Z,4.00
2018-08-10T03:09:50.657Z,4.00
2018-08-10T03:10:50.553Z,0.00
2018-08-10T03:11:50.462Z,0.00
2018-08-10T03:12:50.371Z,0.00
2018-08-10T03:13:50.280Z,0.00
2018-08-10T03:14:50.177Z,0.00
2018-08-10T03:15:50.086Z,4.00
2018-08-10T03:16:49.995Z,4.00
2018-08-10T03:17:49.891Z,4.00
2018-08-10T03:18:49.802Z,4.00
2018-08-10T03:19:49.725Z,8.00
2018-08-10T03:20:49.606Z,12.00
2018-08-10T03:21:49.517Z,12.00
2018-08-10T03:22:49.676Z,12.00
2018-08-10T03:23:49.323Z,16.00
2018-08-10T03:24:49.232Z,16.00
2018-08-10T03:25:49.140Z,24.00
2018-08-10T03:26:49.046Z,32.00
2018-08-10T03:27:48.947Z,40.00
2018-08-10T03:28:48.881Z,52.00
2018-08-10T03:29:48.753Z,64.00
2018-08-10T03:30:48.663Z,72.00
2018-08-10T03:31:48.573Z,88.00
2018-08-10T03:32:48.480Z,104.00
2018-08-10T03:33:48.377Z,120.00
2018-08-10T03:34:48.285Z,136.00
2018-08-10T03:35:48.195Z,148.00
2018-08-10T03:36:48.094Z,160.00
2018-08-10T03:37:48.000Z,176.00
2018-08-10T03:38:47.910Z,188.00
2018-08-10T03:39:47.807Z,196.00
2018-08-10T03:40:47.715Z,188.00
2018-08-10T03:41:47.625Z,184.00
2018-08-10T03:42:47.783Z,188.00
2018-08-10T03:43:47.430Z,204.00
2018-08-10T03:44:47.341Z,224.00
2018-08-10T03:45:47.248Z,236.00
2018-08-10T03:46:47.146Z,244.00
2018-08-10T03:47:47.055Z,272.00
2018-08-10T03:48:46.963Z,320.00
2018-08-10T03:49:46.884Z,372.00
2018-08-10T03:50:46.770Z,416.00
2018-08-10T03:51:46.679Z,468.00
2018-08-10T03:52:46.589Z,504.00
2018-08-10T03:53:46.488Z,532.00
2018-08-10T03:54:46.394Z,548.00
2018-08-10T03:55:46.304Z,588.00
2018-08-10T03:56:46.201Z,620.00
2018-08-10T03:57:46.109Z,632.00
2018-08-10T03:58:46.019Z,628.00
2018-08-10T03:59:45.915Z,628.00
2018-08-10T04:00:45.827Z,604.00
2018-08-10T04:01:45.736Z,596.00
2018-08-10T04:02:45.641Z,616.00
2018-08-10T04:03:45.546Z,648.00
2018-08-10T04:04:45.449Z,664.00
2018-08-10T04:05:45.357Z,660.00
2018-08-10T04:06:45.254Z,696.00
2018-08-10T04:07:45.164Z,748.00
2018-08-10T04:08:45.072Z,828.00
2018-08-10T04:09:44.970Z,896.00
2018-08-10T04:10:44.878Z,900.00
2018-08-10T04:11:44.788Z,888.00
2018-08-10T04:12:44.697Z,900.00
2018-08-10T04:13:44.594Z,904.00
2018-08-10T04:14:44.515Z,884.00
2018-08-10T04:15:44.412Z,852.00
2018-08-10T04:16:44.309Z,832.00
2018-08-10T04:17:44.230Z,804.00
2018-08-10T04:18:44.128Z,784.00
2018-08-10T04:19:44.036Z,780.00
2018-08-10T04:20:43.932Z,812.00
2018-08-10T04:21:43.845Z,840.00
2018-08-10T04:22:43.758Z,836.00
2018-08-10T04:23:43.649Z,812.00
2018-08-10T04:24:43.558Z,844.00
2018-08-10T04:25:43.466Z,912.00
2018-08-10T04:26:43.376Z,1008.00
2018-08-10T04:27:43.272Z,1116.00
2018-08-10T04:28:43.181Z,1212.00
2018-08-10T04:29:43.210Z,1312.00
2018-08-10T04:30:42.999Z,1368.00
2018-08-10T04:31:42.898Z,1412.00
2018-08-10T04:32:43.110Z,1404.00
2018-08-10T04:33:42.714Z,1292.00
2018-08-10T04:34:42.612Z,1084.00
2018-08-10T04:35:42.521Z,980.00
2018-08-10T04:36:42.431Z,964.00
2018-08-10T04:37:42.343Z,1060.00
2018-08-10T04:38:42.237Z,1136.00
2018-08-10T04:39:42.145Z,1072.00
2018-08-10T04:40:42.055Z,1000.00
2018-08-10T04:41:41.952Z,948.00
2018-08-10T04:42:42.110Z,944.00
2018-08-10T04:43:41.769Z,980.00
2018-08-10T04:44:41.678Z,1016.00
2018-08-10T04:45:41.574Z,1004.00
2018-08-10T04:46:41.485Z,960.00
2018-08-10T04:47:41.407Z,940.00
2018-08-10T04:48:41.303Z,940.00
2018-08-10T04:49:41.200Z,948.00
2018-08-10T04:50:41.108Z,980.00
2018-08-10T04:51:41.021Z,1036.00
2018-08-10T04:52:40.915Z,1152.00
2018-08-10T04:53:40.827Z,1280.00
2018-08-10T04:54:40.733Z,1412.00
2018-08-10T04:55:40.642Z,1556.00
2018-08-10T04:56:40.538Z,1692.00
2018-08-10T04:57:40.749Z,1752.00
2018-08-10T04:58:40.357Z,1744.00
2018-08-10T04:59:40.255Z,1764.00
2018-08-10T05:00:40.164Z,1892.00
2018-08-10T05:01:40.073Z,2100.00
2018-08-10T05:02:39.982Z,2296.00
2018-08-10T05:03:39.898Z,2420.00
2018-08-10T05:04:39.787Z,2456.00
2018-08-10T05:05:39.697Z,2476.00
2018-08-10T05:06:39.605Z,2640.00
2018-08-10T05:07:39.502Z,2920.00
2018-08-10T05:08:39.415Z,3272.00
2018-08-10T05:09:39.333Z,3600.00
2018-08-10T05:10:39.219Z,3800.00
2018-08-10T05:11:39.137Z,3836.00
2018-08-10T05:12:39.036Z,3836.00
2018-08-10T05:13:38.946Z,3660.00
2018-08-10T05:14:38.843Z,3560.00
2018-08-10T05:15:38.796Z,3544.00
2018-08-10T05:16:38.661Z,3608.00
2018-08-10T05:17:38.569Z,3856.00
2018-08-10T05:18:38.470Z,4128.00
2018-08-10T05:19:38.379Z,4348.00
2018-08-10T05:20:38.284Z,4528.00
2018-08-10T05:21:38.195Z,4608.00
2018-08-10T05:22:38.352Z,4588.00
2018-08-10T05:23:38.015Z,4608.00
2018-08-10T05:24:37.911Z,4628.00
2018-08-10T05:25:37.817Z,4616.00
2018-08-10T05:26:37.715Z,4552.00
2018-08-10T05:27:37.624Z,4592.00
2018-08-10T05:28:37.535Z,4708.00
2018-08-10T05:29:37.443Z,5036.00
2018-08-10T05:30:37.339Z,4904.00
2018-08-10T05:31:37.248Z,5664.00
2018-08-10T05:32:37.158Z,5224.00
2018-08-10T05:33:37.066Z,6132.00
2018-08-10T05:34:36.963Z,6656.00
2018-08-10T05:35:36.874Z,6568.00
2018-08-10T05:36:36.781Z,6096.00
2018-08-10T05:37:36.691Z,5876.00
2018-08-10T05:38:36.599Z,5884.00
2018-08-10T05:39:36.496Z,5612.00
2018-08-10T05:40:36.407Z,5260.00
2018-08-10T05:41:36.315Z,5332.00
2018-08-10T05:42:36.212Z,5468.00
2018-08-10T05:43:36.124Z,5560.00
2018-08-10T05:44:36.032Z,5640.00
2018-08-10T05:45:35.944Z,5820.00
2018-08-10T05:46:35.848Z,5948.00
2018-08-10T05:47:35.745Z,5976.00
2018-08-10T05:48:35.655Z,5952.00
2018-08-10T05:49:35.563Z,6068.00
2018-08-10T05:50:35.474Z,6236.00
2018-08-10T05:51:35.371Z,6296.00
2018-08-10T05:52:35.313Z,6244.00
2018-08-10T05:53:35.188Z,6068.00
2018-08-10T05:54:35.097Z,5912.00
2018-08-10T05:55:34.995Z,5828.00
2018-08-10T05:56:34.904Z,5928.00
2018-08-10T05:57:35.109Z,6152.00
2018-08-10T05:58:34.722Z,6328.00
2018-08-10T05:59:34.630Z,6336.00
2018-08-10T06:00:34.602Z,6244.00
2018-08-10T06:01:34.438Z,6180.00
2018-08-10T06:02:34.346Z,6180.00
2018-08-10T06:03:34.309Z,6024.00
2018-08-10T06:04:34.155Z,5564.00
2018-08-10T06:05:34.060Z,5080.00
2018-08-10T06:06:33.970Z,4728.00
2018-08-10T06:07:33.879Z,4396.00
2018-08-10T06:08:33.777Z,4084.00
2018-08-10T06:09:33.690Z,4068.00
2018-08-10T06:10:33.594Z,4260.00
2018-08-10T06:11:33.505Z,4392.00
2018-08-10T06:12:33.413Z,4532.00
2018-08-10T06:13:33.310Z,4688.00
2018-08-10T06:14:33.219Z,4748.00
2018-08-10T06:15:33.143Z,4756.00
2018-08-10T06:16:33.037Z,4864.00
2018-08-10T06:17:32.936Z,5220.00
2018-08-10T06:18:32.846Z,5704.00
2018-08-10T06:19:32.810Z,5924.00
2018-08-10T06:20:32.662Z,5644.00
2018-08-10T06:21:32.564Z,5220.00
2018-08-10T06:22:32.719Z,5020.00
2018-08-10T06:23:32.390Z,4968.00
2018-08-10T06:24:32.295Z,4868.00
2018-08-10T06:25:32.195Z,4692.00
2018-08-10T06:26:32.092Z,4608.00
2018-08-10T06:27:32.002Z,4628.00
2018-08-10T06:28:31.909Z,4640.00
2018-08-10T06:29:31.819Z,4604.00
2018-08-10T06:30:31.716Z,4456.00
2018-08-10T06:31:31.625Z,4344.00
2018-08-10T06:32:31.534Z,4368.00
2018-08-10T06:33:31.444Z,4564.00
2018-08-10T06:34:31.340Z,4748.00
2018-08-10T06:35:31.249Z,4812.00
2018-08-10T06:36:31.161Z,4840.00
2018-08-10T06:37:31.068Z,4828.00
2018-08-10T06:38:30.965Z,4780.00
2018-08-10T06:39:30.875Z,4768.00
2018-08-10T06:40:30.783Z,4748.00
2018-08-10T06:41:30.695Z,4708.00
2018-08-10T06:42:30.840Z,4692.00
2018-08-10T06:43:30.498Z,4628.00
2018-08-10T06:44:30.406Z,4608.00
2018-08-10T06:45:30.316Z,4624.00
2018-08-10T06:46:30.218Z,4656.00
2018-08-10T06:47:30.122Z,4600.00
2018-08-10T06:48:30.032Z,4388.00
2018-08-10T06:49:29.942Z,4112.00
2018-08-10T06:50:29.837Z,4000.00
2018-08-10T06:51:29.746Z,3996.00
2018-08-10T06:52:29.656Z,3996.00
2018-08-10T06:53:29.566Z,3920.00
2018-08-10T06:54:29.463Z,3700.00
2018-08-10T06:55:29.370Z,3548.00
2018-08-10T06:56:29.283Z,3516.00
2018-08-10T06:57:29.192Z,3600.00
2018-08-10T06:58:29.087Z,3700.00
2018-08-10T06:59:28.999Z,3840.00
2018-08-10T07:00:28.912Z,4132.00
2018-08-10T07:01:28.858Z,4548.00
2018-08-10T07:02:28.960Z,5108.00
2018-08-10T07:03:28.633Z,5880.00
2018-08-10T07:04:28.528Z,6736.00
2018-08-10T07:05:28.438Z,7556.00
2018-08-10T07:06:28.334Z,8028.00
2018-08-10T07:07:28.288Z,8052.00
2018-08-10T07:08:28.154Z,7696.00
2018-08-10T07:09:28.050Z,7456.00
2018-08-10T07:10:27.959Z,7680.00
2018-08-10T07:11:27.867Z,8312.00
2018-08-10T07:12:27.777Z,9056.00
2018-08-10T07:13:27.728Z,9800.00
2018-08-10T07:14:27.582Z,9252.00
2018-08-10T07:15:27.496Z,10864.00
2018-08-10T07:16:27.401Z,11032.00
2018-08-10T07:17:27.304Z,10516.00
2018-08-10T07:18:27.207Z,10728.00
2018-08-10T07:19:27.118Z,11788.00
2018-08-10T07:20:27.025Z,11980.00
2018-08-10T07:21:26.934Z,11168.00
2018-08-10T07:22:26.828Z,9928.00
2018-08-10T07:23:26.741Z,10704.00
2018-08-10T07:24:26.649Z,11616.00
2018-08-10T07:25:26.548Z,12748.00
2018-08-10T07:26:26.456Z,13160.00
2018-08-10T07:27:26.364Z,12696.00
2018-08-10T07:28:26.274Z,11780.00
2018-08-10T07:29:26.183Z,10480.00
2018-08-10T07:30:26.079Z,9652.00
2018-08-10T07:31:25.989Z,9112.00
2018-08-10T07:32:25.897Z,8736.00
2018-08-10T07:33:25.808Z,8532.00
2018-08-10T07:34:25.707Z,8264.00
2018-08-10T07:35:25.613Z,8056.00
2018-08-10T07:36:25.523Z,8208.00
2018-08-10T07:37:25.436Z,8312.00
2018-08-10T07:38:25.394Z,8296.00
2018-08-10T07:39:25.238Z,7928.00
2018-08-10T07:40:25.147Z,7388.00
2018-08-10T07:41:25.057Z,6744.00
2018-08-10T07:42:24.969Z,6444.00
2018-08-10T07:43:24.881Z,6424.00
2018-08-10T07:44:24.783Z,6384.00
2018-08-10T07:45:24.679Z,6436.00
2018-08-10T07:46:24.621Z,6600.00
2018-08-10T07:47:24.498Z,7056.00
2018-08-10T07:48:24.396Z,7456.00
2018-08-10T07:49:24.305Z,7892.00
2018-08-10T07:50:24.213Z,8408.00
2018-08-10T07:51:24.127Z,8456.00
2018-08-10T07:52:24.032Z,7024.00
2018-08-10T07:53:23.929Z,5184.00
2018-08-10T07:54:23.841Z,5120.00
2018-08-10T07:55:23.747Z,5784.00
2018-08-10T07:56:23.659Z,5120.00
2018-08-10T07:57:23.565Z,5112.00
2018-08-10T07:58:23.467Z,5576.00
2018-08-10T07:59:23.372Z,7668.00
2018-08-10T08:00:23.282Z,11192.00
2018-08-10T08:01:23.190Z,15420.00
2018-08-10T08:02:23.087Z,16412.00
2018-08-10T08:03:23.078Z,16652.00
2018-08-10T08:04:22.906Z,16836.00
2018-08-10T08:05:22.814Z,16836.00
2018-08-10T08:06:22.710Z,16808.00
2018-08-10T08:07:22.624Z,16732.00
2018-08-10T08:08:22.529Z,16124.00
2018-08-10T08:09:22.441Z,15272.00
2018-08-10T08:10:22.392Z,14400.00
2018-08-10T08:11:22.245Z,13860.00
2018-08-10T08:12:22.155Z,13992.00
2018-08-10T08:13:22.063Z,14476.00
2018-08-10T08:14:21.973Z,14900.00
2018-08-10T08:15:21.870Z,15136.00
2018-08-10T08:16:21.777Z,15392.00
2018-08-10T08:17:21.689Z,15856.00
2018-08-10T08:18:21.597Z,16472.00
2018-08-10T08:19:21.521Z,16436.00
2018-08-10T08:20:21.415Z,16188.00
2018-08-10T08:21:21.311Z,16316.00
2018-08-10T08:22:21.221Z,16796.00
2018-08-10T08:23:21.129Z,16912.00
2018-08-10T08:24:21.040Z,17952.00
2018-08-10T08:25:20.948Z,18592.00
2018-08-10T08:26:20.848Z,18048.00
2018-08-10T08:27:20.763Z,18720.00
2018-08-10T08:28:20.663Z,18944.00
2018-08-10T08:29:20.572Z,18688.00
2018-08-10T08:30:20.481Z,17664.00
2018-08-10T08:31:20.392Z,17696.00
2018-08-10T08:32:20.300Z,17408.00
2018-08-10T08:33:20.210Z,17696.00
2018-08-10T08:34:20.106Z,17536.00
2018-08-10T08:35:20.015Z,16720.00
2018-08-10T08:36:19.926Z,17280.00
2018-08-10T08:37:19.833Z,16612.00
2018-08-10T08:38:19.801Z,16312.00
2018-08-10T08:39:19.665Z,15752.00
2018-08-10T08:40:19.561Z,12980.00
2018-08-10T08:41:19.470Z,11668.00
2018-08-10T08:42:19.367Z,11260.00
2018-08-10T08:43:19.277Z,12204.00
2018-08-10T08:44:19.185Z,10616.00
2018-08-10T08:45:19.160Z,7324.00
2018-08-10T08:46:19.200Z,8240.00
2018-08-10T08:47:18.913Z,12756.00
2018-08-10T08:48:18.821Z,13008.00
2018-08-10T08:49:18.731Z,15016.00
2018-08-10T08:50:18.641Z,16460.00
2018-08-10T08:51:18.538Z,18784.00
2018-08-10T08:52:18.451Z,16672.00
2018-08-10T08:53:18.356Z,10972.00
2018-08-10T08:54:18.265Z,11144.00
2018-08-10T08:55:18.174Z,15608.00
2018-08-10T08:56:18.083Z,17664.00
2018-08-10T08:57:18.035Z,16292.00
2018-08-10T08:58:17.904Z,19136.00
2018-08-10T08:59:17.812Z,21440.00
2018-08-10T09:00:17.724Z,17088.00
2018-08-10T09:01:17.629Z,16128.00
2018-08-10T09:02:17.527Z,11508.00
2018-08-10T09:03:17.436Z,10848.00
2018-08-10T09:04:17.345Z,10348.00
2018-08-10T09:05:17.255Z,11588.00
2018-08-10T09:06:17.162Z,13952.00
2018-08-10T09:07:17.124Z,17280.00
2018-08-10T09:08:16.983Z,18816.00
2018-08-10T09:09:16.892Z,20448.00
2018-08-10T09:10:16.839Z,20960.00
2018-08-10T09:11:16.709Z,20448.00
2018-08-10T09:12:16.617Z,22016.00
2018-08-10T09:13:16.527Z,19552.00
2018-08-10T09:14:16.492Z,16908.00
2018-08-10T09:15:16.334Z,16876.00
2018-08-10T09:16:16.242Z,19360.00
2018-08-10T09:17:16.235Z,21824.00
2018-08-10T09:18:16.061Z,22912.00
2018-08-10T09:19:15.969Z,24864.00
2018-08-10T09:20:15.921Z,26240.00
2018-08-10T09:21:15.787Z,23136.00
2018-08-10T09:22:15.697Z,23968.00
2018-08-10T09:23:15.611Z,27136.00
2018-08-10T09:24:15.517Z,22720.00
2018-08-10T09:25:15.425Z,21216.00
2018-08-10T09:26:15.363Z,18464.00
2018-08-10T09:27:15.243Z,15916.00
2018-08-10T09:28:15.152Z,15492.00
2018-08-10T09:29:15.061Z,22688.00
2018-08-10T09:30:14.971Z,21536.00
2018-08-10T09:31:14.879Z,32800.00
2018-08-10T09:32:14.789Z,26272.00
2018-08-10T09:33:14.698Z,40608.00
2018-08-10T09:34:14.608Z,24224.00
2018-08-10T09:35:14.516Z,40640.00
2018-08-10T09:36:14.426Z,19904.00
2018-08-10T09:37:14.334Z,43328.00
2018-08-10T09:38:14.244Z,39552.00
2018-08-10T09:39:14.153Z,22208.00
2018-08-10T09:40:14.063Z,31584.00
2018-08-10T09:41:13.971Z,32384.00
2018-08-10T09:42:13.966Z,29664.00
2018-08-10T09:43:13.790Z,29632.00
2018-08-10T09:44:13.738Z,30784.00
2018-08-10T09:45:13.673Z,25088.00
2018-08-10T09:46:13.518Z,25312.00
2018-08-10T09:47:13.426Z,31360.00
2018-08-10T09:48:13.338Z,30624.00
2018-08-10T09:49:13.245Z,28736.00
2018-08-10T09:50:13.155Z,28736.00
2018-08-10T09:51:13.077Z,28160.00
2018-08-10T09:52:12.977Z,27424.00
2018-08-10T09:53:12.894Z,31776.00
2018-08-10T09:54:12.797Z,35296.00
2018-08-10T09:55:12.702Z,38624.00
2018-08-10T09:56:12.621Z,34784.00
2018-08-10T09:57:12.532Z,38304.00
2018-08-10T09:58:12.440Z,41056.00
2018-08-10T09:59:12.386Z,30944.00
2018-08-10T10:00:12.260Z,18720.00
2018-08-10T10:01:12.169Z,20768.00
2018-08-10T10:02:12.077Z,37536.00
2018-08-10T10:03:11.985Z,40992.00
2018-08-10T10:04:11.896Z,41088.00
2018-08-10T10:05:11.817Z,51872.00
2018-08-10T10:06:11.729Z,56608.00
2018-08-10T10:07:11.635Z,35648.00
2018-08-10T10:08:11.549Z,41696.00
2018-08-10T10:09:11.467Z,25312.00
2018-08-10T10:10:11.364Z,27776.00
2018-08-10T10:11:11.274Z,30720.00
2018-08-10T10:12:11.207Z,25440.00
2018-08-10T10:13:11.107Z,27392.00
2018-08-10T10:14:11.012Z,29856.00
2018-08-10T10:15:10.921Z,37248.00
2018-08-10T10:16:10.831Z,31072.00
2018-08-10T10:17:10.751Z,35424.00
2018-08-10T10:18:10.663Z,37888.00
2018-08-10T10:19:10.570Z,30592.00
2018-08-10T10:20:10.485Z,49376.00
2018-08-10T10:21:10.488Z,54240.00
2018-08-10T10:22:10.310Z,55808.00
2018-08-10T10:23:10.220Z,41024.00
2018-08-10T10:24:10.128Z,46816.00
2018-08-10T10:25:10.039Z,54112.00
2018-08-10T10:26:09.948Z,59392.00
2018-08-10T10:27:09.886Z,47520.00
2018-08-10T10:28:09.779Z,55968.00
2018-08-10T10:29:09.688Z,71136.00
2018-08-10T10:30:09.599Z,76576.00
2018-08-10T10:31:09.519Z,68928.00
2018-08-10T10:32:09.427Z,36352.00
2018-08-10T10:33:09.343Z,43488.00
2018-08-10T10:34:09.258Z,41088.00
2018-08-10T10:35:09.167Z,75104.00
2018-08-10T10:36:09.077Z,80000.00
2018-08-10T10:37:08.999Z,107136.00
2018-08-10T10:38:08.907Z,107200.00
2018-08-10T10:39:08.817Z,92256.00
2018-08-10T10:40:08.738Z,79104.00
2018-08-10T10:41:08.661Z,65664.00
2018-08-10T10:42:08.645Z,69376.00
2018-08-10T10:43:08.555Z,30592.00
2018-08-10T10:44:08.475Z,32544.00
2018-08-10T10:45:08.297Z,76192.00
2018-08-10T10:46:08.220Z,94816.00
2018-08-10T10:47:08.215Z,69824.00
2018-08-10T10:48:08.124Z,21248.00
2018-08-10T10:49:08.047Z,38176.00
2018-08-10T10:50:07.958Z,119232.00
2018-08-10T10:51:07.869Z,134400.00
2018-08-10T10:52:07.787Z,95520.00
2018-08-10T10:53:07.695Z,145376.00
2018-08-10T10:54:07.605Z,125344.00
2018-08-10T10:55:07.528Z,77888.00
2018-08-10T10:56:07.436Z,60256.00
2018-08-10T10:57:07.357Z,51456.00
2018-08-10T10:58:07.267Z,46272.00
2018-08-10T10:59:07.189Z,35424.00
2018-08-10T11:00:07.097Z,59264.00
2018-08-10T11:01:07.019Z,56448.00
2018-08-10T11:02:06.929Z,22240.00
2018-08-10T11:03:06.766Z,21344.00
2018-08-10T11:04:06.695Z,20128.00
2018-08-10T11:05:06.593Z,19648.00
2018-08-10T11:06:06.504Z,17312.00
2018-08-10T11:07:06.425Z,16652.00
2018-08-10T11:08:06.336Z,16692.00
2018-08-10T11:09:06.244Z,97632.00
2018-08-10T11:10:06.168Z,26528.00
2018-08-10T11:11:06.074Z,105216.00
2018-08-10T11:12:05.983Z,34816.00
2018-08-10T11:13:05.904Z,85344.00
2018-08-10T11:14:05.813Z,23584.00
2018-08-10T11:15:05.723Z,16692.00
2018-08-10T11:16:05.644Z,14612.00
2018-08-10T11:17:05.556Z,13112.00
2018-08-10T11:18:05.494Z,16876.00
2018-08-10T11:19:05.385Z,13984.00
2018-08-10T11:20:05.293Z,15272.00
2018-08-10T11:21:05.220Z,68480.00
2018-08-10T11:22:05.124Z,19936.00
2018-08-10T11:23:05.033Z,18400.00
2018-08-10T11:24:04.966Z,111808.00
2018-08-10T11:25:04.876Z,111104.00
2018-08-10T11:26:04.854Z,21536.00
2018-08-10T11:27:04.683Z,27200.00
2018-08-10T11:28:04.592Z,22848.00
2018-08-10T11:29:04.513Z,112992.00
2018-08-10T11:30:04.424Z,17568.00
2018-08-10T11:31:04.332Z,113664.00
2018-08-10T11:32:04.330Z,33824.00
2018-08-10T11:33:04.165Z,81152.00
2018-08-10T11:34:04.072Z,32576.00
2018-08-10T11:35:03.982Z,21920.00
2018-08-10T11:36:03.904Z,22528.00
2018-08-10T11:37:03.812Z,19072.00
2018-08-10T11:38:03.721Z,18080.00
2018-08-10T11:39:03.630Z,15456.00
2018-08-10T11:40:03.553Z,15900.00
2018-08-10T11:41:03.462Z,16364.00
2018-08-10T11:42:03.370Z,12748.00
2018-08-10T11:43:03.283Z,11964.00
2018-08-10T11:44:03.201Z,12112.00
2018-08-10T11:45:03.132Z,12624.00
2018-08-10T11:46:03.021Z,11216.00
2018-08-10T11:47:02.929Z,10228.00
2018-08-10T11:48:02.839Z,9644.00
2018-08-10T11:49:02.748Z,11132.00
2018-08-10T11:50:02.720Z,10648.00
2018-08-10T11:51:02.580Z,10344.00
2018-08-10T11:52:02.487Z,11508.00
2018-08-10T11:53:02.397Z,12388.00
2018-08-10T11:54:02.305Z,11648.00
2018-08-10T11:55:02.215Z,11024.00
2018-08-10T11:56:02.125Z,11308.00
2018-08-10T11:57:02.035Z,12164.00
2018-08-10T11:58:01.943Z,11996.00
2018-08-10T11:59:01.857Z,13584.00
2018-08-10T12:00:01.822Z,15204.00
2018-08-10T12:01:01.673Z,14688.00
2018-08-10T12:02:01.929Z,12224.00
2018-08-10T12:03:01.502Z,13724.00
2018-08-10T12:04:01.417Z,13364.00
2018-08-10T12:05:01.344Z,15524.00
2018-08-10T12:06:01.337Z,14880.00
2018-08-10T12:07:01.138Z,12468.00
2018-08-10T12:08:01.048Z,14420.00
2018-08-10T12:09:00.956Z,16888.00
2018-08-10T12:10:00.866Z,15676.00
2018-08-10T12:11:00.778Z,13028.00
2018-08-10T12:12:00.684Z,32192.00
2018-08-10T12:13:00.593Z,52288.00
2018-08-10T12:14:00.503Z,104768.00
2018-08-10T12:15:00.412Z,106560.00
2018-08-10T12:16:00.322Z,106752.00
2018-08-10T12:17:00.230Z,105408.00